Terminal Aerodrome Forecast
Issued by NWS Wilmington, OH

Home | Current Version | Previous Version | Text Only | Print | Product List | Glossary On
Versions: 1 2 3 4 5 6 7 8 9 10 11 12 13 14 15 16 17 18 19 20 21
000
FTUS41 KILN 211100
TAFILN
TAF
KILN 211138Z 2112/2212 25010KT 3SM -TSRA BKN050CB
     FM211230 22008KT P6SM SCT050 BKN100
      TEMPO 2115/2119 3SM TSRA BR OVC025CB
     FM211900 23010KT P6SM SCT050 BKN100
     FM220000 22005KT P6SM SCT050 BKN150
     FM221100 22005KT P6SM BKN040=

USA.gov is the U.S. government's official web portal to all federal, state and local government web resources and services.